createdAt,value
2022-12-23T00:00:17.552Z,99.99
2022-12-23T00:01:20.251Z,99.99
2022-12-23T00:02:23.850Z,99.99
2022-12-23T00:04:00.445Z,99.99
2022-12-23T00:05:03.727Z,99.99
2022-12-23T00:06:06.524Z,99.99
2022-12-23T00:07:41.194Z,99.99
2022-12-23T00:08:44.019Z,99.99
2022-12-23T00:09:46.850Z,99.99
2022-12-23T00:11:21.678Z,99.99
2022-12-23T00:12:24.531Z,99.99
2022-12-23T00:13:27.422Z,99.99
2022-12-23T00:15:10.104Z,99.99
2022-12-23T00:16:13.110Z,99.99
2022-12-23T00:17:28.427Z,99.99
2022-12-23T00:19:03.100Z,99.99
2022-12-23T00:20:05.943Z,99.99
2022-12-23T00:21:14.604Z,99.99
2022-12-23T00:22:49.354Z,99.99
2022-12-23T00:23:52.202Z,99.99
2022-12-23T00:24:55.063Z,99.99
2022-12-23T00:26:29.841Z,99.99
2022-12-23T00:27:37.342Z,99.99
2022-12-23T00:28:40.615Z,99.99
2022-12-23T00:30:15.565Z,99.99
2022-12-23T00:31:18.717Z,99.99
2022-12-23T00:32:22.063Z,99.99
2022-12-23T00:33:56.477Z,99.99
2022-12-23T00:34:59.275Z,99.99
2022-12-23T00:36:02.187Z,99.99
2022-12-23T00:37:37.259Z,99.99
2022-12-23T00:38:39.995Z,99.99
2022-12-23T00:39:42.844Z,99.99
2022-12-23T00:41:30.227Z,99.99
2022-12-23T00:42:33.072Z,99.99
2022-12-23T00:43:35.963Z,99.99
2022-12-23T00:45:10.720Z,99.99
2022-12-23T00:46:14.023Z,99.99
2022-12-23T00:47:17.473Z,99.99
2022-12-23T00:48:52.198Z,99.99
2022-12-23T00:49:54.937Z,99.99
2022-12-23T00:50:57.697Z,99.99
2022-12-23T00:52:32.323Z,99.99
2022-12-23T00:53:35.041Z,99.99
2022-12-23T00:54:37.862Z,99.99
2022-12-23T00:56:12.466Z,99.99
2022-12-23T00:57:15.338Z,99.99
2022-12-23T00:58:18.283Z,99.99
2022-12-23T00:59:53.012Z,99.99
2022-12-23T01:00:18.191Z,99.99
2022-12-23T01:01:21.264Z,99.99
2022-12-23T01:02:25.629Z,99.99
2022-12-23T01:04:02.031Z,99.99
2022-12-23T01:05:04.885Z,99.99
2022-12-23T01:06:07.743Z,99.99
2022-12-23T01:07:42.273Z,99.99
2022-12-23T01:08:45.092Z,99.99
2022-12-23T01:09:47.919Z,99.99
2022-12-23T01:11:22.663Z,99.99
2022-12-23T01:12:25.382Z,99.99
2022-12-23T01:13:28.194Z,99.99
2022-12-23T01:15:02.932Z,99.99
2022-12-23T01:16:07.484Z,99.99
2022-12-23T01:17:15.747Z,99.99
2022-12-23T01:18:50.699Z,99.99
2022-12-23T01:19:53.584Z,99.99
2022-12-23T01:20:56.617Z,99.99
2022-12-23T01:22:31.214Z,99.99
2022-12-23T01:23:33.872Z,99.99
2022-12-23T01:24:36.657Z,99.99
2022-12-23T01:26:11.164Z,99.99
2022-12-23T01:27:13.838Z,99.99
2022-12-23T01:28:16.743Z,99.99
2022-12-23T01:29:51.387Z,99.99
2022-12-23T01:30:54.797Z,99.99
2022-12-23T01:31:58.066Z,99.99
2022-12-23T01:33:33.407Z,99.99
2022-12-23T01:34:42.551Z,99.99
2022-12-23T01:35:45.393Z,99.99
2022-12-23T01:37:20.091Z,99.99
2022-12-23T01:38:22.908Z,99.99
2022-12-23T01:39:25.572Z,99.99
2022-12-23T01:41:00.317Z,99.99
2022-12-23T01:42:02.946Z,99.99
2022-12-23T01:43:05.779Z,99.99
2022-12-23T01:44:40.274Z,99.99
2022-12-23T01:45:44.699Z,99.99
2022-12-23T01:46:47.866Z,99.99
2022-12-23T01:48:22.587Z,99.99
2022-12-23T01:49:25.465Z,99.99
2022-12-23T01:50:28.383Z,99.99
2022-12-23T01:52:03.086Z,99.99
2022-12-23T01:53:13.183Z,99.99
2022-12-23T01:54:16.115Z,99.99
2022-12-23T01:55:50.832Z,99.99
2022-12-23T01:56:53.607Z,99.99
2022-12-23T01:57:56.412Z,99.99
2022-12-23T01:59:30.954Z,99.99
2022-12-23T02:00:17.779Z,99.99
2022-12-23T02:01:20.604Z,99.99
2022-12-23T02:02:25.006Z,99.99
2022-12-23T02:04:00.893Z,99.99
2022-12-23T02:05:03.786Z,99.99
2022-12-23T02:06:06.688Z,99.99
2022-12-23T02:07:41.829Z,99.99
2022-12-23T02:08:44.703Z,99.99
2022-12-23T02:09:47.528Z,99.99
2022-12-23T02:11:22.227Z,99.99
2022-12-23T02:12:25.200Z,99.99
2022-12-23T02:13:28.056Z,99.99
2022-12-23T02:15:02.582Z,99.99
2022-12-23T02:16:05.341Z,99.99
2022-12-23T02:17:08.385Z,99.99
2022-12-23T02:18:42.960Z,99.99
2022-12-23T02:19:45.761Z,99.99
2022-12-23T02:20:48.598Z,99.99
2022-12-23T02:22:23.767Z,99.99
2022-12-23T02:23:26.811Z,99.99
2022-12-23T02:24:29.806Z,99.99
2022-12-23T02:26:04.534Z,99.99
2022-12-23T02:27:07.428Z,99.99
2022-12-23T02:28:10.357Z,99.99
2022-12-23T02:29:44.900Z,99.99
2022-12-23T02:30:47.967Z,99.99
2022-12-23T02:31:51.215Z,99.99
2022-12-23T02:33:25.795Z,99.99
2022-12-23T02:34:28.532Z,99.99
2022-12-23T02:35:31.270Z,99.99
2022-12-23T02:37:05.755Z,99.99
2022-12-23T02:38:08.534Z,99.99
2022-12-23T02:39:11.456Z,99.99
2022-12-23T02:40:46.196Z,99.99
2022-12-23T02:41:49.202Z,99.99
2022-12-23T02:42:52.008Z,99.99
2022-12-23T02:44:26.706Z,99.99
2022-12-23T02:45:29.614Z,99.99
2022-12-23T02:46:32.934Z,99.99
2022-12-23T02:48:07.984Z,99.99
2022-12-23T02:49:10.789Z,99.99
2022-12-23T02:50:13.540Z,99.99
2022-12-23T02:51:48.175Z,99.99
2022-12-23T02:52:50.964Z,99.99
2022-12-23T02:53:53.667Z,99.99
2022-12-23T02:55:28.415Z,99.99
2022-12-23T02:56:31.305Z,99.99
2022-12-23T02:57:34.204Z,99.99
2022-12-23T02:59:08.896Z,99.99
2022-12-23T03:00:17.431Z,99.99
2022-12-23T03:01:20.440Z,99.99
2022-12-23T03:02:24.785Z,99.99
2022-12-23T03:04:02.005Z,99.99
2022-12-23T03:05:06.898Z,99.99
2022-12-23T03:06:09.556Z,99.92
2022-12-23T03:07:49.004Z,99.98
2022-12-23T03:08:51.767Z,99.98
2022-12-23T03:09:54.567Z,99.96
2022-12-23T03:11:29.300Z,99.99
2022-12-23T03:12:32.091Z,99.99
2022-12-23T03:13:34.986Z,99.99
2022-12-23T03:15:09.794Z,99.99
2022-12-23T03:16:12.809Z,99.99
2022-12-23T03:17:16.087Z,99.99
2022-12-23T03:18:50.983Z,99.99
2022-12-23T03:19:53.818Z,99.99
2022-12-23T03:20:56.670Z,99.99
2022-12-23T03:22:31.141Z,99.98
2022-12-23T03:23:33.967Z,99.96
2022-12-23T03:24:42.143Z,99.98
2022-12-23T03:26:16.662Z,99.93
2022-12-23T03:27:19.333Z,99.96
2022-12-23T03:28:22.150Z,99.97
2022-12-23T03:29:56.819Z,99.92
2022-12-23T03:31:00.015Z,99.89
2022-12-23T03:32:03.571Z,99.88
2022-12-23T03:33:38.270Z,99.85
2022-12-23T03:34:41.063Z,99.83
2022-12-23T03:35:43.860Z,99.82
2022-12-23T03:37:18.476Z,99.82
2022-12-23T03:38:21.258Z,99.74
2022-12-23T03:39:24.011Z,99.79
2022-12-23T03:40:58.758Z,99.73
2022-12-23T03:42:01.480Z,99.71
2022-12-23T03:43:04.246Z,99.75
2022-12-23T03:45:03.754Z,99.75
2022-12-23T03:46:38.391Z,99.83
2022-12-23T03:47:41.641Z,99.85
2022-12-23T03:49:16.421Z,99.87
2022-12-23T03:50:19.294Z,99.83
2022-12-23T03:51:22.076Z,99.86
2022-12-23T03:53:04.969Z,99.89
2022-12-23T03:54:07.859Z,99.96
2022-12-23T03:55:10.669Z,99.95
2022-12-23T03:56:45.221Z,99.94
2022-12-23T03:57:47.920Z,99.96
2022-12-23T03:58:50.746Z,99.99
2022-12-23T04:00:17.849Z,99.93
2022-12-23T04:01:23.714Z,99.92
2022-12-23T04:02:27.708Z,99.97
2022-12-23T04:04:03.834Z,99.96
2022-12-23T04:05:07.002Z,99.93
2022-12-23T04:06:09.831Z,99.95
2022-12-23T04:07:44.603Z,99.92
2022-12-23T04:08:47.397Z,99.94
2022-12-23T04:09:50.262Z,99.96
2022-12-23T04:11:24.805Z,99.88
2022-12-23T04:12:27.529Z,99.90
2022-12-23T04:13:30.252Z,99.90
2022-12-23T04:15:10.729Z,99.85
2022-12-23T04:16:15.617Z,99.90
2022-12-23T04:17:18.731Z,99.84
2022-12-23T04:18:53.271Z,99.88
2022-12-23T04:19:56.006Z,99.86
2022-12-23T04:20:58.924Z,99.86
2022-12-23T04:22:33.569Z,99.81
2022-12-23T04:23:36.479Z,99.81
2022-12-23T04:24:39.327Z,99.82
2022-12-23T04:26:13.990Z,99.80
2022-12-23T04:27:16.854Z,99.76
2022-12-23T04:28:19.697Z,99.78
2022-12-23T04:29:54.318Z,99.71
2022-12-23T04:30:57.157Z,99.89
2022-12-23T04:32:00.441Z,99.91
2022-12-23T04:33:34.917Z,99.93
2022-12-23T04:34:37.667Z,99.93
2022-12-23T04:35:40.385Z,99.94
2022-12-23T04:37:15.749Z,99.96
2022-12-23T04:38:18.703Z,99.95
2022-12-23T04:39:21.530Z,99.90
2022-12-23T04:40:56.320Z,99.88
2022-12-23T04:41:59.217Z,99.84
2022-12-23T04:43:02.138Z,99.83
2022-12-23T04:44:44.265Z,99.81
2022-12-23T04:45:47.008Z,99.73
2022-12-23T04:46:50.069Z,99.75
2022-12-23T04:48:24.959Z,99.73
2022-12-23T04:49:27.837Z,99.75
2022-12-23T04:50:30.643Z,99.67
2022-12-23T04:52:05.181Z,99.74
2022-12-23T04:53:07.868Z,99.74
2022-12-23T04:54:10.677Z,99.76
2022-12-23T04:55:45.346Z,99.76
2022-12-23T04:56:48.175Z,99.78
2022-12-23T04:57:51.125Z,99.81
2022-12-23T04:59:25.792Z,99.78
2022-12-23T05:00:17.581Z,99.78
2022-12-23T05:01:27.550Z,99.78
2022-12-23T05:02:32.003Z,99.78
2022-12-23T05:04:07.893Z,99.78
2022-12-23T05:05:46.758Z,99.77
2022-12-23T05:06:49.644Z,99.76
2022-12-23T05:07:52.501Z,99.82
2022-12-23T05:09:27.062Z,99.76
2022-12-23T05:10:29.893Z,99.75
2022-12-23T05:11:37.119Z,99.75
2022-12-23T05:13:14.972Z,99.71
2022-12-23T05:14:17.781Z,99.72
2022-12-23T05:15:20.830Z,99.72
2022-12-23T05:16:56.053Z,99.79
2022-12-23T05:18:05.061Z,99.76
2022-12-23T05:19:07.957Z,99.73
2022-12-23T05:20:42.726Z,99.76
2022-12-23T05:21:45.567Z,99.75
2022-12-23T05:22:48.416Z,99.75
2022-12-23T05:24:22.926Z,99.80
2022-12-23T05:25:25.760Z,99.80
2022-12-23T05:26:28.541Z,99.75
2022-12-23T05:28:12.723Z,99.76
2022-12-23T05:29:15.553Z,99.70
2022-12-23T05:30:18.384Z,99.70
2022-12-23T05:31:53.770Z,99.67
2022-12-23T05:32:57.049Z,99.71
2022-12-23T05:34:05.972Z,99.71
2022-12-23T05:35:41.176Z,99.65
2022-12-23T05:36:44.127Z,99.65
2022-12-23T05:37:46.986Z,99.60
2022-12-23T05:39:22.516Z,99.63
2022-12-23T05:40:34.994Z,99.66
2022-12-23T05:41:38.840Z,99.67
2022-12-23T05:43:13.534Z,99.66
2022-12-23T05:44:16.373Z,99.65
2022-12-23T05:45:19.239Z,99.62
2022-12-23T05:46:54.701Z,99.67
2022-12-23T05:47:57.676Z,99.66
2022-12-23T05:49:00.524Z,99.60
2022-12-23T05:50:35.238Z,99.60
2022-12-23T05:51:38.110Z,99.65
2022-12-23T05:52:41.035Z,99.56
2022-12-23T05:54:15.541Z,99.56
2022-12-23T05:55:18.568Z,99.49
2022-12-23T05:56:21.303Z,99.53
2022-12-23T05:57:55.968Z,99.53
2022-12-23T05:58:58.733Z,99.54
2022-12-23T06:00:01.496Z,99.48
2022-12-23T06:00:17.473Z,99.53
2022-12-23T06:01:20.327Z,99.51
2022-12-23T06:02:24.367Z,99.52
2022-12-23T06:04:08.017Z,99.47
2022-12-23T06:05:11.432Z,99.43
2022-12-23T06:06:14.311Z,99.48
2022-12-23T06:07:49.100Z,99.50
2022-12-23T06:08:57.511Z,99.51
2022-12-23T06:10:02.496Z,99.51
2022-12-23T06:11:36.976Z,99.51
2022-12-23T06:12:39.863Z,99.39
2022-12-23T06:13:42.775Z,99.44
2022-12-23T06:15:21.293Z,99.42
2022-12-23T06:16:24.357Z,99.43
2022-12-23T06:17:27.662Z,99.47
2022-12-23T06:19:02.275Z,99.29
2022-12-23T06:20:05.176Z,99.32
2022-12-23T06:21:17.531Z,99.34
2022-12-23T06:22:52.157Z,99.35
2022-12-23T06:23:54.927Z,99.38
2022-12-23T06:24:57.880Z,99.33
2022-12-23T06:26:32.558Z,99.37
2022-12-23T06:27:42.921Z,99.36
2022-12-23T06:28:45.683Z,99.41
2022-12-23T06:30:20.378Z,99.39
2022-12-23T06:31:23.351Z,99.36
2022-12-23T06:32:26.528Z,99.27
2022-12-23T06:34:07.812Z,99.27
2022-12-23T06:35:10.614Z,99.30
2022-12-23T06:36:13.583Z,99.34
2022-12-23T06:37:48.156Z,99.34
2022-12-23T06:38:57.929Z,99.30
2022-12-23T06:40:00.759Z,99.34
2022-12-23T06:41:35.555Z,99.31
2022-12-23T06:42:39.317Z,99.31
2022-12-23T06:43:42.252Z,99.31
2022-12-23T06:45:23.336Z,99.19
2022-12-23T06:46:26.342Z,99.26
2022-12-23T06:47:29.523Z,99.14
2022-12-23T06:49:10.941Z,99.21
2022-12-23T06:50:15.856Z,99.19
2022-12-23T06:51:18.866Z,99.19
2022-12-23T06:52:53.435Z,99.11
2022-12-23T06:53:56.247Z,99.15
2022-12-23T06:54:59.056Z,99.16
2022-12-23T06:56:33.793Z,99.20
2022-12-23T06:57:36.577Z,99.21
2022-12-23T06:58:39.366Z,99.13
2022-12-23T07:00:17.866Z,99.10
2022-12-23T07:01:20.837Z,99.10
2022-12-23T07:02:25.374Z,99.09
2022-12-23T07:04:01.646Z,99.13
2022-12-23T07:05:04.529Z,99.14
2022-12-23T07:06:15.404Z,99.10
2022-12-23T07:07:50.020Z,99.15
2022-12-23T07:08:52.908Z,99.16
2022-12-23T07:09:55.857Z,99.14
2022-12-23T07:11:30.469Z,99.16
2022-12-23T07:12:33.318Z,99.06
2022-12-23T07:13:42.394Z,99.09
2022-12-23T07:15:17.175Z,99.03
2022-12-23T07:16:20.259Z,99.06
2022-12-23T07:17:23.628Z,99.12
2022-12-23T07:18:58.328Z,99.08
2022-12-23T07:20:01.139Z,99.08
2022-12-23T07:21:04.005Z,99.07
2022-12-23T07:22:53.991Z,99.09
2022-12-23T07:23:56.825Z,99.06
2022-12-23T07:24:59.853Z,99.11
2022-12-23T07:26:34.450Z,99.09
2022-12-23T07:27:37.175Z,99.06
2022-12-23T07:28:39.956Z,99.05
2022-12-23T07:30:14.620Z,99.06
2022-12-23T07:31:17.660Z,99.10
2022-12-23T07:32:26.763Z,99.07
2022-12-23T07:34:01.446Z,99.09
2022-12-23T07:35:04.211Z,99.13
2022-12-23T07:36:07.047Z,99.11
2022-12-23T07:37:41.824Z,99.12
2022-12-23T07:38:44.719Z,99.11
2022-12-23T07:39:47.616Z,99.12
2022-12-23T07:41:30.181Z,99.13
2022-12-23T07:43:06.021Z,99.13
2022-12-23T07:44:08.909Z,99.13
2022-12-23T07:45:43.899Z,99.13
2022-12-23T07:46:57.025Z,99.17
2022-12-23T07:47:59.860Z,99.16
2022-12-23T07:49:34.584Z,99.14
2022-12-23T07:50:37.332Z,99.13
2022-12-23T07:51:40.261Z,99.14
2022-12-23T07:53:14.833Z,99.12
2022-12-23T07:54:17.781Z,99.11
2022-12-23T07:55:20.502Z,99.14
2022-12-23T07:56:55.206Z,99.13
2022-12-23T07:57:58.124Z,99.14
2022-12-23T07:59:01.034Z,99.13
2022-12-23T08:00:16.719Z,99.14
2022-12-23T08:01:19.672Z,99.14
2022-12-23T08:02:24.019Z,99.18
2022-12-23T08:04:00.834Z,99.14
2022-12-23T08:05:03.997Z,99.13
2022-12-23T08:06:07.483Z,99.15
2022-12-23T08:07:42.145Z,99.11
2022-12-23T08:08:45.010Z,99.15
2022-12-23T08:09:47.899Z,99.15
2022-12-23T08:11:29.246Z,99.17
2022-12-23T08:12:32.014Z,99.18
2022-12-23T08:13:34.814Z,99.18
2022-12-23T08:15:09.438Z,99.19
2022-12-23T08:16:12.713Z,99.10
2022-12-23T08:17:24.305Z,99.10
2022-12-23T08:18:59.132Z,99.10
2022-12-23T08:20:01.963Z,99.10
2022-12-23T08:21:04.976Z,99.10
2022-12-23T08:22:39.633Z,99.10
2022-12-23T08:23:42.434Z,99.60
2022-12-23T08:24:45.294Z,99.35
2022-12-23T08:26:20.020Z,99.25
2022-12-23T08:27:22.820Z,99.25
2022-12-23T08:28:25.744Z,99.24
2022-12-23T08:30:00.385Z,99.21
2022-12-23T08:31:03.284Z,99.23
2022-12-23T08:32:06.803Z,99.23
2022-12-23T08:33:41.463Z,99.23
2022-12-23T08:34:44.389Z,99.23
2022-12-23T08:35:47.275Z,99.23
2022-12-23T08:37:22.055Z,99.26
2022-12-23T08:38:24.845Z,99.26
2022-12-23T08:39:28.884Z,99.26
2022-12-23T08:41:03.443Z,99.25
2022-12-23T08:42:06.323Z,99.25
2022-12-23T08:43:09.149Z,99.29
2022-12-23T08:44:51.586Z,99.21
2022-12-23T08:45:54.575Z,99.21
2022-12-23T08:46:57.859Z,99.21
2022-12-23T08:48:32.545Z,99.24
2022-12-23T08:49:41.521Z,99.27
2022-12-23T08:50:44.271Z,99.27
2022-12-23T08:52:19.016Z,99.33
2022-12-23T08:53:22.360Z,99.28
2022-12-23T08:54:25.360Z,99.28
2022-12-23T08:56:00.105Z,99.28
2022-12-23T08:57:03.059Z,99.28
2022-12-23T08:58:05.976Z,99.30
2022-12-23T08:59:42.186Z,99.25
2022-12-23T09:00:17.319Z,99.29
2022-12-23T09:01:20.224Z,99.25
2022-12-23T09:02:24.301Z,99.17
2022-12-23T09:04:01.622Z,99.17
2022-12-23T09:05:04.460Z,99.17
2022-12-23T09:06:07.243Z,99.17
2022-12-23T09:07:50.140Z,99.24
2022-12-23T09:08:52.920Z,99.22
2022-12-23T09:09:56.070Z,99.14
2022-12-23T09:11:30.882Z,99.16
2022-12-23T09:12:33.760Z,99.16
2022-12-23T09:13:41.677Z,99.19
2022-12-23T09:15:16.363Z,99.08
2022-12-23T09:16:19.513Z,99.06
2022-12-23T09:17:23.345Z,99.10
2022-12-23T09:18:58.166Z,99.11
2022-12-23T09:20:00.965Z,99.16
2022-12-23T09:21:03.832Z,99.18
2022-12-23T09:22:38.556Z,99.15
2022-12-23T09:23:41.274Z,99.17
2022-12-23T09:24:44.185Z,99.15
2022-12-23T09:26:26.678Z,99.16
2022-12-23T09:27:29.707Z,99.21
2022-12-23T09:28:32.554Z,99.20
2022-12-23T09:30:07.253Z,99.17
2022-12-23T09:31:10.206Z,99.12
2022-12-23T09:32:22.798Z,99.11
2022-12-23T09:33:57.609Z,99.13
2022-12-23T09:35:00.317Z,99.18
2022-12-23T09:36:03.140Z,99.14
2022-12-23T09:37:45.059Z,99.17
2022-12-23T09:38:47.901Z,99.14
2022-12-23T09:39:51.015Z,99.16
2022-12-23T09:41:25.736Z,99.15
2022-12-23T09:42:28.696Z,99.15
2022-12-23T09:43:31.509Z,99.14
2022-12-23T09:45:06.395Z,99.14
2022-12-23T09:46:09.382Z,99.20
2022-12-23T09:47:17.803Z,99.22
2022-12-23T09:48:52.621Z,99.21
2022-12-23T09:49:55.486Z,99.21
2022-12-23T09:50:58.334Z,99.23
2022-12-23T09:52:33.146Z,99.21
2022-12-23T09:53:35.946Z,99.22
2022-12-23T09:54:38.828Z,99.12
2022-12-23T09:56:13.523Z,99.13
2022-12-23T09:57:16.358Z,99.13
2022-12-23T09:58:19.212Z,99.11
2022-12-23T09:59:53.822Z,99.11
2022-12-23T10:00:17.843Z,99.19
2022-12-23T10:01:21.061Z,99.17
2022-12-23T10:02:31.630Z,99.17
2022-12-23T10:04:09.286Z,99.23
2022-12-23T10:05:12.691Z,99.23
2022-12-23T10:06:15.629Z,99.23
2022-12-23T10:07:54.980Z,99.24
2022-12-23T10:08:57.923Z,99.28
2022-12-23T10:10:00.766Z,99.29
2022-12-23T10:11:35.549Z,99.29
2022-12-23T10:12:45.599Z,99.29
2022-12-23T10:13:48.420Z,99.29
2022-12-23T10:15:23.072Z,99.58
2022-12-23T10:16:26.323Z,99.36
2022-12-23T10:17:29.317Z,99.27
2022-12-23T10:19:04.049Z,99.27
2022-12-23T10:20:06.817Z,99.30
2022-12-23T10:21:09.908Z,99.24
2022-12-23T10:22:44.584Z,99.33
2022-12-23T10:23:47.298Z,99.30
2022-12-23T10:24:50.239Z,99.24
2022-12-23T10:26:24.885Z,99.24
2022-12-23T10:27:27.730Z,99.24
2022-12-23T10:28:35.804Z,99.21
2022-12-23T10:31:17.379Z,99.27
2022-12-23T10:32:38.567Z,99.22
2022-12-23T10:33:42.227Z,99.22
2022-12-23T10:35:24.342Z,99.25
2022-12-23T10:36:27.467Z,99.23
2022-12-23T10:37:30.889Z,99.27
2022-12-23T10:39:05.972Z,99.32
2022-12-23T10:40:09.080Z,99.30
2022-12-23T10:41:15.571Z,99.28
2022-12-23T10:42:50.228Z,99.25
2022-12-23T10:43:53.884Z,99.29
2022-12-23T10:44:56.675Z,99.36
2022-12-23T10:46:31.592Z,99.35
2022-12-23T10:47:34.836Z,99.36
2022-12-23T10:48:38.866Z,99.37
2022-12-23T10:50:13.790Z,99.39
2022-12-23T10:51:17.024Z,99.36
2022-12-23T10:52:19.903Z,99.37
2022-12-23T10:53:54.470Z,99.34
2022-12-23T10:54:57.373Z,99.41
2022-12-23T10:56:00.264Z,99.46
2022-12-23T10:57:35.136Z,99.40
2022-12-23T10:58:38.485Z,99.40
2022-12-23T10:59:42.267Z,99.37
2022-12-23T11:00:18.331Z,99.37
2022-12-23T11:01:32.115Z,99.39
2022-12-23T11:02:36.983Z,99.37
2022-12-23T11:04:13.950Z,99.40
2022-12-23T11:05:17.359Z,99.41
2022-12-23T11:06:20.068Z,99.35
2022-12-23T11:08:37.353Z,99.33
2022-12-23T11:09:40.141Z,99.39
2022-12-23T11:10:44.389Z,99.40
2022-12-23T11:12:19.151Z,99.39
2022-12-23T11:13:28.850Z,99.36
2022-12-23T11:14:31.727Z,99.37
2022-12-23T11:16:06.492Z,99.36
2022-12-23T11:17:09.889Z,99.39
2022-12-23T11:18:12.805Z,99.34
2022-12-23T11:19:54.271Z,99.42
2022-12-23T11:20:57.287Z,99.38
2022-12-23T11:22:00.119Z,99.36
2022-12-23T11:23:34.983Z,99.33
2022-12-23T11:24:43.783Z,99.36
2022-12-23T11:25:46.882Z,99.36
2022-12-23T11:27:21.740Z,99.34
2022-12-23T11:28:24.629Z,99.37
2022-12-23T11:29:28.589Z,99.39
2022-12-23T11:31:03.098Z,99.41
2022-12-23T11:32:06.892Z,99.40
2022-12-23T11:33:09.978Z,99.39
2022-12-23T11:34:44.805Z,99.34
2022-12-23T11:35:48.167Z,99.38
2022-12-23T11:37:03.337Z,99.39
2022-12-23T11:38:40.083Z,99.40
2022-12-23T11:39:42.902Z,99.41
2022-12-23T11:40:46.885Z,99.37
2022-12-23T11:42:21.865Z,99.37
2022-12-23T11:43:24.784Z,99.35
2022-12-23T11:44:28.583Z,99.42
2022-12-23T11:46:03.458Z,99.41
2022-12-23T11:47:06.940Z,99.44
2022-12-23T11:48:09.936Z,99.40
2022-12-23T11:49:46.884Z,99.40
2022-12-23T11:50:49.976Z,99.41
2022-12-23T11:51:53.694Z,99.36
2022-12-23T11:53:28.580Z,99.38
2022-12-23T11:54:31.409Z,99.38
2022-12-23T11:55:40.315Z,99.34
2022-12-23T11:57:16.344Z,99.40
2022-12-23T11:58:19.336Z,99.37
2022-12-23T11:59:22.402Z,99.38
2022-12-23T12:00:17.994Z,99.36
2022-12-23T12:01:21.828Z,99.35
2022-12-23T12:02:24.990Z,99.37
2022-12-23T12:04:01.029Z,99.37
2022-12-23T12:05:04.011Z,99.40
2022-12-23T12:06:07.003Z,99.46
2022-12-23T12:07:48.195Z,99.58
2022-12-23T12:08:51.153Z,99.55
2022-12-23T12:09:53.907Z,99.54
2022-12-23T12:11:28.895Z,99.64
2022-12-23T12:12:31.772Z,99.63
2022-12-23T12:13:40.704Z,99.53
2022-12-23T12:15:16.165Z,99.52
2022-12-23T12:16:19.159Z,99.53
2022-12-23T12:17:23.187Z,99.53
2022-12-23T12:19:01.648Z,99.55
2022-12-23T12:20:04.505Z,99.46
2022-12-23T12:21:07.423Z,99.54
2022-12-23T12:22:42.279Z,99.56
2022-12-23T12:23:45.075Z,99.58
2022-12-23T12:25:11.051Z,99.55
2022-12-23T12:26:52.416Z,99.60
2022-12-23T12:27:55.584Z,99.61
2022-12-23T12:28:58.529Z,99.65
2022-12-23T12:30:33.460Z,99.61
2022-12-23T12:31:36.877Z,99.58
2022-12-23T12:32:39.770Z,99.58
2022-12-23T12:34:14.450Z,99.65
2022-12-23T12:35:17.387Z,99.56
2022-12-23T12:36:20.502Z,99.54
2022-12-23T12:37:55.695Z,99.51
2022-12-23T12:38:58.647Z,99.54
2022-12-23T12:40:01.565Z,99.52
2022-12-23T12:41:36.229Z,99.50
2022-12-23T12:42:46.094Z,99.63
2022-12-23T12:43:48.918Z,99.70
2022-12-23T12:45:23.720Z,99.72
2022-12-23T12:46:27.692Z,99.63
2022-12-23T12:48:07.002Z,99.60
2022-12-23T12:49:48.308Z,99.59
2022-12-23T12:50:51.143Z,99.72
2022-12-23T12:51:54.041Z,99.77
2022-12-23T12:53:28.767Z,99.66
2022-12-23T12:54:31.692Z,99.65
2022-12-23T12:55:34.623Z,99.64
2022-12-23T12:57:10.287Z,99.65
2022-12-23T12:58:13.127Z,99.71
2022-12-23T12:59:15.881Z,99.78
2022-12-23T13:00:17.520Z,99.75
2022-12-23T13:01:20.696Z,99.83
2022-12-23T13:02:24.104Z,99.76
2022-12-23T13:04:00.558Z,99.75
2022-12-23T13:05:03.374Z,99.73
2022-12-23T13:06:06.177Z,99.77
2022-12-23T13:07:41.073Z,99.81
2022-12-23T13:08:44.229Z,99.81
2022-12-23T13:09:47.175Z,99.79
2022-12-23T13:11:28.223Z,99.73
2022-12-23T13:12:31.723Z,99.69
2022-12-23T13:13:34.591Z,99.68
2022-12-23T13:15:10.422Z,99.70
2022-12-23T13:16:13.378Z,99.70
2022-12-23T13:17:16.762Z,99.70
2022-12-23T13:18:55.485Z,99.70
2022-12-23T13:19:58.344Z,99.79
2022-12-23T13:21:01.321Z,99.90
2022-12-23T13:22:36.121Z,99.91
2022-12-23T13:24:14.642Z,99.83
2022-12-23T13:25:17.557Z,99.89
2022-12-23T13:26:52.241Z,99.84
2022-12-23T13:27:55.320Z,99.85
2022-12-23T13:28:58.217Z,99.85
2022-12-23T13:30:39.064Z,99.80
2022-12-23T13:31:42.449Z,99.82
2022-12-23T13:32:45.229Z,99.85
2022-12-23T13:34:19.881Z,99.79
2022-12-23T13:35:22.911Z,99.87
2022-12-23T13:36:25.850Z,99.85
2022-12-23T13:38:01.383Z,99.86
2022-12-23T13:39:04.138Z,99.87
2022-12-23T13:40:07.226Z,99.87
2022-12-23T13:41:42.511Z,99.96
2022-12-23T13:42:51.932Z,99.94
2022-12-23T13:43:54.688Z,99.97
2022-12-23T13:45:29.297Z,99.91
2022-12-23T13:46:32.593Z,99.90
2022-12-23T13:47:35.902Z,99.95
2022-12-23T13:49:16.976Z,99.91
2022-12-23T13:50:19.829Z,99.91
2022-12-23T13:51:22.831Z,99.90
2022-12-23T13:52:57.389Z,99.85
2022-12-23T13:54:06.339Z,99.83
2022-12-23T13:55:09.239Z,99.82
2022-12-23T13:56:43.783Z,99.83
2022-12-23T13:57:47.035Z,99.85
2022-12-23T13:58:51.120Z,99.81
2022-12-23T14:00:18.055Z,99.77
2022-12-23T14:01:21.233Z,99.76
2022-12-23T14:02:24.555Z,99.79
2022-12-23T14:04:00.301Z,99.77
2022-12-23T14:05:03.060Z,99.74
2022-12-23T14:06:13.940Z,99.73
2022-12-23T14:07:49.060Z,99.76
2022-12-23T14:08:51.899Z,99.74
2022-12-23T14:09:54.786Z,99.72
2022-12-23T14:11:29.412Z,99.77
2022-12-23T14:12:34.282Z,99.71
2022-12-23T14:13:37.133Z,99.73
2022-12-23T14:15:11.867Z,99.74
2022-12-23T14:16:14.975Z,99.73
2022-12-23T14:17:18.169Z,99.72
2022-12-23T14:18:56.662Z,99.71
2022-12-23T14:19:59.479Z,99.72
2022-12-23T14:21:02.231Z,99.75
2022-12-23T14:22:36.765Z,99.82
2022-12-23T14:23:39.780Z,99.80
2022-12-23T14:24:50.088Z,99.80
2022-12-23T14:26:24.646Z,99.78
2022-12-23T14:27:27.543Z,99.84
2022-12-23T14:28:30.378Z,99.86
2022-12-23T14:30:12.468Z,99.82
2022-12-23T14:31:15.398Z,99.82
2022-12-23T14:32:18.537Z,99.82
2022-12-23T14:33:53.760Z,99.86
2022-12-23T14:34:56.563Z,99.83
2022-12-23T14:35:59.496Z,99.87
2022-12-23T14:37:34.869Z,99.93
2022-12-23T14:38:38.866Z,99.90
2022-12-23T14:39:41.697Z,99.90
2022-12-23T14:41:17.426Z,99.99
2022-12-23T14:42:22.483Z,99.99
2022-12-23T14:43:25.385Z,99.99
2022-12-23T14:45:00.724Z,99.99
2022-12-23T14:46:03.832Z,99.94
2022-12-23T14:47:07.187Z,99.94
2022-12-23T14:48:47.463Z,99.99
2022-12-23T14:50:32.473Z,99.99
2022-12-23T14:51:35.453Z,99.99
2022-12-23T14:53:11.543Z,99.99
2022-12-23T14:54:14.599Z,99.99
2022-12-23T14:55:36.136Z,99.99
2022-12-23T14:57:12.016Z,99.99
2022-12-23T14:58:14.817Z,99.99
2022-12-23T14:59:17.713Z,99.99
2022-12-23T15:00:17.553Z,99.99
2022-12-23T15:01:20.449Z,99.99
2022-12-23T15:02:23.953Z,99.99
2022-12-23T15:04:07.311Z,99.99
2022-12-23T15:05:10.085Z,99.99
2022-12-23T15:06:13.079Z,99.99
2022-12-23T15:07:47.880Z,99.99
2022-12-23T15:08:50.949Z,99.99
2022-12-23T15:10:00.334Z,99.99
2022-12-23T15:11:35.589Z,99.99
2022-12-23T15:12:38.817Z,99.99
2022-12-23T15:13:42.592Z,99.99
2022-12-23T15:15:17.422Z,99.99
2022-12-23T15:16:20.565Z,99.99
2022-12-23T15:17:24.038Z,99.99
2022-12-23T15:18:59.451Z,99.99
2022-12-23T15:20:02.355Z,99.99
2022-12-23T15:21:05.188Z,99.99
2022-12-23T15:23:12.965Z,99.99
2022-12-23T15:24:15.807Z,99.99
2022-12-23T15:25:18.741Z,99.99
2022-12-23T15:27:28.765Z,99.98
2022-12-23T15:28:39.762Z,99.99
2022-12-23T15:29:42.735Z,99.99
2022-12-23T15:31:17.747Z,99.98
2022-12-23T15:32:21.257Z,99.98
2022-12-23T15:34:11.765Z,99.99
2022-12-23T15:35:51.375Z,99.99
2022-12-23T15:36:54.535Z,99.99
2022-12-23T15:37:57.432Z,99.99
2022-12-23T15:39:34.264Z,99.99
2022-12-23T15:40:54.172Z,99.99
2022-12-23T15:41:57.099Z,99.99
2022-12-23T15:43:31.841Z,99.99
2022-12-23T15:44:34.777Z,99.99
2022-12-23T15:45:38.491Z,99.99
2022-12-23T15:47:22.335Z,99.99
2022-12-23T15:48:25.157Z,99.99
2022-12-23T15:49:28.583Z,99.99
2022-12-23T15:51:03.250Z,99.98
2022-12-23T15:53:00.487Z,99.99
2022-12-23T15:54:03.330Z,99.99
2022-12-23T15:55:38.979Z,99.99
2022-12-23T15:56:42.891Z,99.99
2022-12-23T15:57:52.101Z,99.99
2022-12-23T15:59:26.915Z,99.99